createdAt,value
2022-10-19T00:02:24.889Z,1.23
2022-10-19T00:04:52.589Z,0.93
2022-10-19T00:07:20.417Z,1.10
2022-10-19T00:09:49.510Z,1.00
2022-10-19T00:12:17.376Z,1.00
2022-10-19T00:14:46.444Z,0.95
2022-10-19T00:17:14.107Z,0.85
2022-10-19T00:19:44.311Z,0.80
2022-10-19T00:22:13.925Z,0.83
2022-10-19T00:24:41.986Z,1.05
2022-10-19T00:27:11.027Z,1.10
2022-10-19T00:29:39.327Z,0.80
2022-10-19T00:32:07.086Z,0.80
2022-10-19T00:34:34.893Z,0.80
2022-10-19T00:37:04.642Z,0.60
2022-10-19T00:39:32.384Z,0.57
2022-10-19T00:42:00.108Z,0.60
2022-10-19T00:45:06.909Z,0.70
2022-10-19T00:47:35.078Z,0.60
2022-10-19T00:50:03.324Z,0.60
2022-10-19T00:52:31.471Z,0.55
2022-10-19T00:55:00.421Z,0.57
2022-10-19T00:57:31.455Z,0.80
2022-10-19T01:00:01.506Z,0.60
2022-10-19T01:02:30.805Z,0.60
2022-10-19T01:05:00.088Z,0.60
2022-10-19T01:07:28.302Z,0.80
2022-10-19T01:09:56.789Z,0.63
2022-10-19T01:12:40.691Z,0.63
2022-10-19T01:15:20.993Z,0.50
2022-10-19T01:18:00.249Z,0.70
2022-10-19T01:20:52.327Z,0.50
2022-10-19T01:23:43.671Z,0.50
2022-10-19T01:26:38.101Z,0.67
2022-10-19T01:29:15.967Z,0.43
2022-10-19T01:31:48.159Z,0.88
2022-10-19T01:34:20.583Z,0.50
2022-10-19T01:36:58.265Z,0.80
2022-10-19T01:39:29.981Z,0.60
2022-10-19T01:42:03.949Z,0.70
2022-10-19T01:44:38.510Z,0.70
2022-10-19T01:47:11.766Z,0.68
2022-10-19T01:49:45.277Z,0.75
2022-10-19T01:52:17.338Z,0.60
2022-10-19T01:54:48.409Z,0.80
2022-10-19T01:57:23.582Z,0.75
2022-10-19T01:59:52.672Z,0.60
2022-10-19T02:02:22.987Z,0.52
2022-10-19T02:04:52.081Z,0.70
2022-10-19T02:07:22.736Z,0.95
2022-10-19T02:09:50.616Z,0.70
2022-10-19T02:12:19.905Z,0.80
2022-10-19T02:14:51.942Z,0.60
2022-10-19T02:17:25.780Z,0.70
2022-10-19T02:19:54.544Z,0.57
2022-10-19T02:22:22.955Z,0.55
2022-10-19T02:24:50.674Z,0.70
2022-10-19T02:27:18.951Z,0.70
2022-10-19T02:29:46.769Z,0.77
2022-10-19T02:32:14.511Z,0.50
2022-10-19T02:34:43.650Z,0.80
2022-10-19T02:37:11.721Z,0.55
2022-10-19T02:39:40.460Z,0.60
2022-10-19T02:42:12.866Z,0.50
2022-10-19T02:44:43.973Z,0.60
2022-10-19T02:47:16.426Z,0.70
2022-10-19T02:49:47.051Z,0.82
2022-10-19T02:52:15.584Z,0.60
2022-10-19T02:54:45.250Z,0.70
2022-10-19T02:57:17.713Z,0.70
2022-10-19T02:59:45.625Z,0.73
2022-10-19T03:02:13.565Z,0.75
2022-10-19T03:04:42.575Z,0.90
2022-10-19T03:07:12.493Z,0.73
2022-10-19T03:09:40.180Z,0.65
2022-10-19T03:12:07.873Z,0.70
2022-10-19T03:14:35.569Z,0.82
2022-10-19T03:17:03.418Z,0.63
2022-10-19T03:19:31.376Z,0.60
2022-10-19T03:21:59.211Z,0.75
2022-10-19T03:24:28.491Z,0.80
2022-10-19T03:26:56.308Z,0.98
2022-10-19T03:29:24.408Z,0.75
2022-10-19T03:31:52.356Z,0.90
2022-10-19T03:34:20.049Z,0.80
2022-10-19T03:36:47.772Z,0.70
2022-10-19T03:39:17.319Z,0.80
2022-10-19T03:41:46.664Z,0.90
2022-10-19T03:44:14.660Z,0.87
2022-10-19T03:46:42.330Z,0.85
2022-10-19T03:49:10.649Z,0.70
2022-10-19T03:51:38.573Z,0.60
2022-10-19T03:54:08.095Z,0.90
2022-10-19T03:56:36.917Z,0.70
2022-10-19T03:59:07.238Z,0.77
2022-10-19T04:01:36.299Z,0.70
2022-10-19T04:04:07.123Z,0.98
2022-10-19T04:06:36.825Z,1.25
2022-10-19T04:09:06.039Z,1.20
2022-10-19T04:11:34.937Z,0.68
2022-10-19T04:14:03.078Z,1.15
2022-10-19T04:16:33.443Z,1.00
2022-10-19T04:19:01.651Z,0.95
2022-10-19T04:21:30.914Z,1.10
2022-10-19T04:24:00.954Z,1.40
2022-10-19T04:26:29.051Z,0.75
2022-10-19T04:28:58.538Z,1.08
2022-10-19T04:31:27.011Z,1.35
2022-10-19T04:33:56.099Z,0.80
2022-10-19T04:36:24.395Z,1.17
2022-10-19T04:38:52.215Z,0.93
2022-10-19T04:41:21.906Z,1.08
2022-10-19T04:43:52.690Z,1.00
2022-10-19T04:46:20.882Z,0.97
2022-10-19T04:48:49.859Z,0.90
2022-10-19T04:51:19.772Z,1.40
2022-10-19T04:53:47.985Z,0.98
2022-10-19T04:56:18.228Z,1.00
2022-10-19T04:58:46.340Z,0.83
2022-10-19T05:01:15.563Z,0.90
2022-10-19T05:03:43.423Z,1.00
2022-10-19T05:06:11.826Z,0.90
2022-10-19T05:08:41.240Z,0.88
2022-10-19T05:11:11.884Z,1.03
2022-10-19T05:13:40.017Z,1.75
2022-10-19T05:16:10.689Z,1.02
2022-10-19T05:18:38.416Z,0.80
2022-10-19T05:21:08.190Z,1.05
2022-10-19T05:23:36.366Z,0.57
2022-10-19T05:26:07.941Z,0.80
2022-10-19T05:28:36.439Z,1.20
2022-10-19T05:31:09.551Z,0.70
2022-10-19T05:33:38.256Z,0.98
2022-10-19T05:36:17.299Z,1.20
2022-10-19T05:38:45.500Z,1.45
2022-10-19T05:41:15.358Z,1.20
2022-10-19T05:43:43.781Z,0.93
2022-10-19T05:46:14.113Z,0.63
2022-10-19T05:48:42.400Z,0.70
2022-10-19T05:51:12.957Z,0.75
2022-10-19T05:53:40.943Z,0.90
2022-10-19T05:56:13.631Z,0.63
2022-10-19T05:58:42.847Z,0.90
2022-10-19T06:01:10.560Z,0.90
2022-10-19T06:03:38.320Z,0.88
2022-10-19T06:06:07.466Z,1.10
2022-10-19T06:08:36.178Z,0.70
2022-10-19T06:11:08.376Z,1.20
2022-10-19T06:13:36.750Z,0.73
2022-10-19T06:16:08.303Z,0.70
2022-10-19T06:18:36.078Z,0.80
2022-10-19T06:21:04.993Z,0.90
2022-10-19T06:23:33.384Z,0.70
2022-10-19T06:26:03.671Z,0.77
2022-10-19T06:28:31.353Z,0.90
2022-10-19T06:30:59.710Z,0.85
2022-10-19T06:33:29.965Z,0.90
2022-10-19T06:35:57.614Z,1.25
2022-10-19T06:38:25.419Z,1.10
2022-10-19T06:40:53.128Z,1.17
2022-10-19T06:43:20.809Z,1.17
2022-10-19T06:45:48.471Z,1.00
2022-10-19T06:48:16.309Z,1.30
2022-10-19T06:50:45.377Z,1.03
2022-10-19T06:53:13.040Z,1.20
2022-10-19T06:55:40.700Z,0.82
2022-10-19T06:58:08.372Z,0.70
2022-10-19T07:00:36.110Z,0.80
2022-10-19T07:03:04.066Z,1.40
2022-10-19T07:05:31.748Z,0.80
2022-10-19T07:08:00.863Z,1.00
2022-10-19T07:10:28.528Z,1.05
2022-10-19T07:12:57.240Z,0.95
2022-10-19T07:15:24.900Z,1.00
2022-10-19T07:17:54.027Z,1.33
2022-10-19T07:20:21.657Z,1.00
2022-10-19T07:22:49.289Z,1.30
2022-10-19T07:25:18.290Z,0.93
2022-10-19T07:27:45.933Z,1.33
2022-10-19T07:30:13.606Z,1.40
2022-10-19T07:32:45.988Z,1.30
2022-10-19T07:35:14.918Z,1.10
2022-10-19T07:37:42.855Z,1.00
2022-10-19T07:40:12.193Z,1.10
2022-10-19T07:42:41.193Z,1.05
2022-10-19T07:45:09.357Z,1.30
2022-10-19T07:47:37.142Z,0.80
2022-10-19T07:50:05.495Z,0.95
2022-10-19T07:52:36.025Z,1.00
2022-10-19T07:55:05.654Z,0.90
2022-10-19T07:57:33.481Z,0.82
2022-10-19T08:00:02.570Z,0.85
2022-10-19T08:02:54.842Z,1.33
2022-10-19T08:05:27.680Z,0.83
2022-10-19T08:07:55.419Z,0.90
2022-10-19T08:10:23.129Z,0.70
2022-10-19T08:12:50.961Z,0.70
2022-10-19T08:15:20.070Z,1.20
2022-10-19T08:17:47.897Z,0.80
2022-10-19T08:20:15.544Z,0.82
2022-10-19T08:22:45.120Z,1.15
2022-10-19T08:25:12.825Z,0.73
2022-10-19T08:27:40.519Z,1.10
2022-10-19T08:30:09.290Z,1.07
2022-10-19T08:32:38.503Z,1.00
2022-10-19T08:35:10.013Z,0.80
2022-10-19T08:37:44.789Z,0.95
2022-10-19T08:40:19.294Z,1.48
2022-10-19T08:42:54.707Z,0.90
2022-10-19T08:45:33.566Z,1.00
2022-10-19T08:48:19.524Z,1.23
2022-10-19T08:50:48.988Z,1.35
2022-10-19T08:53:19.489Z,1.00
2022-10-19T08:55:59.786Z,0.90
2022-10-19T08:58:41.832Z,1.15
2022-10-19T09:01:14.970Z,1.08
2022-10-19T09:03:55.334Z,1.20
2022-10-19T09:06:28.386Z,1.02
2022-10-19T09:08:57.989Z,0.83
2022-10-19T09:11:28.360Z,1.10
2022-10-19T09:14:05.680Z,1.23
2022-10-19T09:16:34.745Z,1.00
2022-10-19T09:19:04.494Z,1.27
2022-10-19T09:21:47.086Z,0.83
2022-10-19T09:24:27.979Z,1.75
2022-10-19T09:26:58.158Z,1.02
2022-10-19T09:29:30.608Z,0.98
2022-10-19T09:32:01.053Z,1.02
2022-10-19T09:34:34.843Z,1.10
2022-10-19T09:37:02.880Z,1.17
2022-10-19T09:39:31.995Z,1.08
2022-10-19T09:42:08.534Z,1.10
2022-10-19T09:44:36.460Z,1.10
2022-10-19T09:47:20.961Z,0.90
2022-10-19T09:49:50.241Z,1.10
2022-10-19T09:52:30.298Z,1.50
2022-10-19T09:55:03.131Z,1.10
2022-10-19T09:57:31.011Z,0.90
2022-10-19T09:59:58.848Z,0.90
2022-10-19T10:02:31.799Z,0.60
2022-10-19T10:05:07.655Z,0.85
2022-10-19T10:07:38.609Z,1.15
2022-10-19T10:10:21.389Z,1.00
2022-10-19T10:12:49.441Z,0.97
2022-10-19T10:15:20.142Z,1.00
2022-10-19T10:17:49.334Z,0.90
2022-10-19T10:20:26.833Z,0.70
2022-10-19T10:22:58.446Z,0.70
2022-10-19T10:25:29.439Z,1.17
2022-10-19T10:28:00.149Z,0.90
2022-10-19T10:30:35.438Z,1.10
2022-10-19T10:33:15.916Z,0.95
2022-10-19T10:35:55.546Z,1.05
2022-10-19T10:38:26.271Z,0.93
2022-10-19T10:40:57.156Z,1.05
2022-10-19T10:43:30.537Z,0.88
2022-10-19T10:46:02.832Z,1.05
2022-10-19T10:48:32.921Z,0.80
2022-10-19T10:51:03.456Z,1.30
2022-10-19T10:53:37.185Z,1.20
2022-10-19T10:56:07.555Z,1.10
2022-10-19T10:58:47.630Z,1.00
2022-10-19T11:01:21.110Z,1.20
2022-10-19T11:03:55.384Z,1.07
2022-10-19T11:06:26.479Z,0.80
2022-10-19T11:09:04.444Z,1.38
2022-10-19T11:11:37.259Z,0.90
2022-10-19T11:14:23.152Z,1.25
2022-10-19T11:16:53.814Z,1.20
2022-10-19T11:19:24.791Z,1.10
2022-10-19T11:22:00.452Z,1.45
2022-10-19T11:24:36.493Z,1.45
2022-10-19T11:27:18.420Z,1.02
2022-10-19T11:29:59.395Z,1.93
2022-10-19T11:32:37.230Z,0.77
2022-10-19T11:35:21.884Z,1.45
2022-10-19T11:38:18.830Z,0.82
2022-10-19T11:43:55.682Z,0.83
2022-10-19T11:46:30.536Z,1.13
2022-10-19T11:49:07.825Z,1.25
2022-10-19T11:51:41.561Z,1.23
2022-10-19T11:54:22.945Z,0.90
2022-10-19T11:57:11.750Z,1.00
2022-10-19T11:59:53.658Z,0.98
2022-10-19T12:02:41.736Z,0.98
2022-10-19T12:05:14.141Z,1.02
2022-10-19T12:07:55.413Z,1.35
2022-10-19T12:10:33.330Z,1.20
2022-10-19T12:13:04.719Z,0.80
2022-10-19T12:15:36.657Z,1.00
2022-10-19T12:18:10.680Z,1.20
2022-10-19T12:20:43.564Z,1.20
2022-10-19T12:23:24.018Z,1.10
2022-10-19T12:25:54.116Z,1.00
2022-10-19T12:28:25.837Z,1.70
2022-10-19T12:30:54.501Z,0.90
2022-10-19T12:33:26.127Z,1.30
2022-10-19T12:36:04.047Z,1.20
2022-10-19T12:38:45.134Z,1.10
2022-10-19T12:41:23.744Z,1.15
2022-10-19T12:44:07.586Z,1.20
2022-10-19T12:46:42.808Z,1.13
2022-10-19T12:49:36.250Z,1.30
2022-10-19T12:52:04.568Z,1.20
2022-10-19T12:54:35.290Z,1.27
2022-10-19T12:57:22.800Z,1.15
2022-10-19T13:00:00.776Z,1.20
2022-10-19T13:02:31.161Z,1.17
2022-10-19T13:04:59.103Z,1.35
2022-10-19T13:07:28.199Z,1.00
2022-10-19T13:10:01.495Z,1.52
2022-10-19T13:12:44.475Z,1.20
2022-10-19T13:16:00.645Z,1.07
2022-10-19T13:19:08.251Z,1.27
2022-10-19T13:22:01.243Z,1.33
2022-10-19T13:24:37.286Z,1.48
2022-10-19T13:27:28.407Z,1.50
2022-10-19T13:29:57.532Z,1.40
2022-10-19T13:32:44.226Z,1.35
2022-10-19T13:35:36.174Z,1.00
2022-10-19T13:38:24.095Z,1.25
2022-10-19T13:41:06.335Z,1.20
2022-10-19T13:43:36.542Z,1.20
2022-10-19T13:46:11.220Z,1.25
2022-10-19T13:49:07.728Z,1.13
2022-10-19T13:51:44.379Z,1.38
2022-10-19T13:54:27.619Z,1.02
2022-10-19T13:57:08.196Z,1.37
2022-10-19T14:00:10.492Z,1.33
2022-10-19T14:03:11.971Z,1.08
2022-10-19T14:06:07.512Z,1.70
2022-10-19T14:08:55.352Z,1.40
2022-10-19T14:11:27.584Z,1.20
2022-10-19T14:14:15.633Z,1.35
2022-10-19T14:16:52.635Z,1.30
2022-10-19T14:19:27.782Z,1.10
2022-10-19T14:21:57.442Z,1.55
2022-10-19T14:24:34.152Z,1.30
2022-10-19T14:27:04.134Z,1.20
2022-10-19T14:29:36.464Z,1.70
2022-10-19T14:32:05.265Z,1.35
2022-10-19T14:34:34.352Z,1.08
2022-10-19T14:37:02.124Z,1.50
2022-10-19T14:39:32.459Z,1.00
2022-10-19T14:42:04.741Z,1.42
2022-10-19T14:44:41.507Z,1.40
2022-10-19T14:47:21.105Z,1.17
2022-10-19T14:49:51.122Z,1.50
2022-10-19T14:52:24.277Z,1.40
2022-10-19T14:54:55.738Z,1.30
2022-10-19T14:57:28.125Z,1.67
2022-10-19T14:59:59.101Z,1.27
2022-10-19T15:02:31.259Z,1.20
2022-10-19T15:05:02.737Z,1.63
2022-10-19T15:07:35.989Z,1.10
2022-10-19T15:10:07.421Z,1.25
2022-10-19T15:12:38.399Z,1.20
2022-10-19T15:15:09.986Z,1.60
2022-10-19T15:17:47.670Z,1.20
2022-10-19T15:20:25.737Z,1.40
2022-10-19T15:22:53.501Z,1.67
2022-10-19T15:25:33.287Z,1.50
2022-10-19T15:28:32.419Z,1.40
2022-10-19T15:31:05.791Z,1.60
2022-10-19T15:33:38.848Z,1.70
2022-10-19T15:36:16.876Z,1.80
2022-10-19T15:38:46.199Z,1.70
2022-10-19T15:41:22.145Z,1.57
2022-10-19T15:43:52.422Z,1.77
2022-10-19T15:46:31.469Z,1.92
2022-10-19T15:49:05.507Z,2.10
2022-10-19T15:51:45.716Z,1.92
2022-10-19T15:54:15.981Z,2.17
2022-10-19T15:56:44.995Z,1.80
2022-10-19T15:59:16.848Z,2.70
2022-10-19T16:01:45.538Z,2.03
2022-10-19T16:04:13.281Z,2.63
2022-10-19T16:06:44.439Z,2.50
2022-10-19T16:09:19.162Z,2.35
2022-10-19T16:11:46.865Z,2.53
2022-10-19T16:14:18.194Z,2.90
2022-10-19T16:16:45.961Z,2.75
2022-10-19T16:19:13.820Z,3.17
2022-10-19T16:21:46.707Z,2.38
2022-10-19T16:24:17.116Z,2.53
2022-10-19T16:26:44.799Z,2.50
2022-10-19T16:29:12.481Z,2.60
2022-10-19T16:31:40.526Z,2.40
2022-10-19T16:34:08.244Z,3.10
2022-10-19T16:36:35.930Z,2.67
2022-10-19T16:39:05.368Z,2.63
2022-10-19T16:41:33.260Z,2.40
2022-10-19T16:44:00.987Z,2.90
2022-10-19T16:46:28.703Z,2.95
2022-10-19T16:48:56.412Z,2.50
2022-10-19T16:51:30.991Z,3.35
2022-10-19T16:53:59.315Z,2.30
2022-10-19T16:56:30.709Z,2.20
2022-10-19T16:59:00.728Z,2.70
2022-10-19T17:01:29.491Z,2.00
2022-10-19T17:03:57.516Z,2.22
2022-10-19T17:06:26.685Z,3.20
2022-10-19T17:11:45.974Z,2.97
2022-10-19T17:14:13.917Z,2.60
2022-10-19T17:16:41.783Z,2.58
2022-10-19T17:19:11.127Z,3.05
2022-10-19T17:21:45.504Z,3.53
2022-10-19T17:24:20.149Z,4.27
2022-10-19T17:26:50.669Z,4.00
2022-10-19T17:29:18.595Z,4.15
2022-10-19T17:31:46.295Z,4.65
2022-10-19T17:34:14.052Z,4.78
2022-10-19T17:36:45.408Z,5.03
2022-10-19T17:39:17.449Z,4.75
2022-10-19T17:41:45.764Z,5.80
2022-10-19T17:44:13.964Z,4.75
2022-10-19T17:46:42.055Z,4.90
2022-10-19T17:49:10.413Z,5.30
2022-10-19T17:51:38.847Z,5.15
2022-10-19T17:54:11.807Z,4.40
2022-10-19T17:56:39.776Z,5.00
2022-10-19T17:59:08.951Z,4.65
2022-10-19T18:01:37.894Z,4.57
2022-10-19T18:04:06.285Z,4.60
2022-10-19T18:06:36.162Z,4.40
2022-10-19T18:09:07.379Z,4.07
2022-10-19T18:11:38.614Z,4.43
2022-10-19T18:14:08.152Z,3.67
2022-10-19T18:16:38.220Z,3.65
2022-10-19T18:19:06.564Z,3.38
2022-10-19T18:21:38.414Z,3.08
2022-10-19T18:24:10.194Z,3.53
2022-10-19T18:26:42.041Z,3.13
2022-10-19T18:29:12.614Z,3.00
2022-10-19T18:31:41.248Z,3.10
2022-10-19T18:34:12.737Z,2.65
2022-10-19T18:36:40.473Z,2.88
2022-10-19T18:39:08.466Z,3.37
2022-10-19T18:41:36.916Z,2.80
2022-10-19T18:44:07.198Z,2.28
2022-10-19T18:46:36.638Z,2.50
2022-10-19T18:49:08.112Z,2.60
2022-10-19T18:51:36.639Z,2.30
2022-10-19T18:54:04.583Z,2.45
2022-10-19T18:56:33.314Z,1.98
2022-10-19T18:59:01.103Z,2.00
2022-10-19T19:01:30.758Z,1.90
2022-10-19T19:04:06.411Z,1.93
2022-10-19T19:06:36.065Z,2.08
2022-10-19T19:09:06.417Z,1.90
2022-10-19T19:11:36.991Z,1.95
2022-10-19T19:14:07.238Z,2.58
2022-10-19T19:16:38.092Z,2.00
2022-10-19T19:19:06.669Z,2.00
2022-10-19T19:21:36.406Z,2.42
2022-10-19T19:24:06.156Z,2.30
2022-10-19T19:26:35.933Z,2.08
2022-10-19T19:29:03.782Z,2.27
2022-10-19T19:31:31.522Z,2.55
2022-10-19T19:34:02.175Z,2.28
2022-10-19T19:36:30.395Z,2.58
2022-10-19T19:38:59.072Z,2.67
2022-10-19T19:41:28.710Z,2.73
2022-10-19T19:43:57.510Z,2.67
2022-10-19T19:46:25.263Z,2.95
2022-10-19T19:49:00.005Z,2.50
2022-10-19T19:51:30.040Z,2.67
2022-10-19T19:53:58.334Z,3.30
2022-10-19T19:56:26.414Z,2.70
2022-10-19T19:58:56.576Z,3.05
2022-10-19T20:01:25.032Z,2.92
2022-10-19T20:03:52.955Z,2.88
2022-10-19T20:06:25.028Z,2.70
2022-10-19T20:08:56.247Z,2.88
2022-10-19T20:11:25.280Z,2.80
2022-10-19T20:13:53.063Z,2.60
2022-10-19T20:16:25.157Z,2.58
2022-10-19T20:18:59.777Z,2.37
2022-10-19T20:21:27.989Z,2.67
2022-10-19T20:23:57.081Z,2.60
2022-10-19T20:26:25.826Z,2.83
2022-10-19T20:28:54.240Z,2.28
2022-10-19T20:31:22.195Z,2.90
2022-10-19T20:33:50.033Z,2.97
2022-10-19T20:36:19.964Z,2.83
2022-10-19T20:38:49.171Z,2.83
2022-10-19T20:41:19.119Z,2.92
2022-10-19T20:43:47.234Z,2.80
2022-10-19T20:46:16.411Z,2.95
2022-10-19T20:48:44.361Z,3.25
2022-10-19T20:51:14.329Z,3.10
2022-10-19T20:53:43.603Z,2.70
2022-10-19T20:56:12.032Z,3.00
2022-10-19T20:58:43.425Z,3.08
2022-10-19T21:01:13.419Z,3.05
2022-10-19T21:03:45.937Z,2.90
2022-10-19T21:06:13.599Z,3.10
2022-10-19T21:08:41.360Z,2.90
2022-10-19T21:11:13.997Z,2.75
2022-10-19T21:13:44.139Z,3.22
2022-10-19T21:16:12.983Z,3.20
2022-10-19T21:18:41.142Z,2.97
2022-10-19T21:21:17.667Z,2.53
2022-10-19T21:23:47.132Z,3.13
2022-10-19T21:26:15.783Z,3.00
2022-10-19T21:28:48.795Z,3.00
2022-10-19T21:31:18.077Z,2.72
2022-10-19T21:33:46.379Z,2.73
2022-10-19T21:36:15.260Z,2.70
2022-10-19T21:38:43.652Z,3.03
2022-10-19T21:41:14.252Z,2.80
2022-10-19T21:43:42.239Z,2.83
2022-10-19T21:46:15.175Z,2.70
2022-10-19T21:48:43.314Z,2.60
2022-10-19T21:51:23.467Z,2.58
2022-10-19T21:53:51.848Z,2.67
2022-10-19T21:56:19.545Z,2.47
2022-10-19T21:58:47.796Z,2.73
2022-10-19T22:01:17.851Z,2.85
2022-10-19T22:03:46.005Z,2.60
2022-10-19T22:06:14.233Z,2.80
2022-10-19T22:08:46.090Z,2.78
2022-10-19T22:11:15.421Z,2.70
2022-10-19T22:13:43.403Z,2.53
2022-10-19T22:16:13.171Z,2.38
2022-10-19T22:18:42.904Z,2.47
2022-10-19T22:21:13.196Z,3.03
2022-10-19T22:23:41.432Z,2.60
2022-10-19T22:26:14.307Z,2.95
2022-10-19T22:28:42.320Z,3.20
2022-10-19T22:31:10.612Z,2.75
2022-10-19T22:33:38.484Z,2.55
2022-10-19T22:36:09.427Z,2.63
2022-10-19T22:38:37.443Z,2.67
2022-10-19T22:42:00.253Z,2.80
2022-10-19T22:44:31.492Z,2.50
2022-10-19T22:46:59.898Z,3.00
2022-10-19T22:49:27.610Z,2.60
2022-10-19T22:51:56.758Z,2.60
2022-10-19T22:54:24.455Z,2.58
2022-10-19T22:56:52.148Z,2.85
2022-10-19T22:59:19.948Z,3.25
2022-10-19T23:01:47.737Z,3.47
2022-10-19T23:04:15.529Z,3.03
2022-10-19T23:06:43.256Z,2.78
2022-10-19T23:09:12.378Z,2.92
2022-10-19T23:11:40.109Z,3.15
2022-10-19T23:14:07.841Z,2.60
2022-10-19T23:16:35.601Z,3.28
2022-10-19T23:19:03.388Z,2.72
2022-10-19T23:21:31.321Z,3.00
2022-10-19T23:23:59.086Z,3.20
2022-10-19T23:26:28.358Z,3.50
2022-10-19T23:28:56.057Z,2.90
2022-10-19T23:31:26.685Z,3.80
2022-10-19T23:33:54.657Z,3.33
2022-10-19T23:36:23.559Z,3.80
2022-10-19T23:38:52.745Z,4.07
2022-10-19T23:41:21.094Z,3.97
2022-10-19T23:43:50.314Z,3.60
2022-10-19T23:46:18.072Z,3.33
2022-10-19T23:48:45.873Z,3.25
2022-10-19T23:51:15.761Z,3.67
2022-10-19T23:53:45.607Z,3.70
2022-10-19T23:56:15.796Z,3.88
2022-10-19T23:58:43.765Z,3.45
